This is the latest recevied weather packets stored in our database for station/object KO6TH-15. If no packets are shown the sender has not sent any weather packets the latest 10 day(s).
| Time | Temp. | Humidity | Pressure | Rain* | Wind** | Luminosity | Snow |
|---|---|---|---|---|---|---|---|
| 1778283349 | 30.56° C | 47% | 0 hPa | 0 mm | - | - | - |
| 1778282749 | 30° C | 48% | 0 hPa | 0 mm | - | - | - |
| 1778282119 | 30° C | 49% | 0 hPa | 0 mm | - | - | - |
| 1778281519 | 30.56° C | 47% | 0 hPa | 0 mm | - | - | - |
| 1778280889 | 31.67° C | 47% | 0 hPa | 0 mm | - | - | - |
| 1778280259 | 31.11° C | 49% | 0 hPa | 0 mm | - | - | - |
| 1778279659 | 30.56° C | 51% | 0 hPa | 0 mm | - | - | - |
| 1778279059 | 30° C | 52% | 0 hPa | 0 mm | - | - | - |
| 1778278429 | 31.11° C | 48% | 0 hPa | 0 mm | - | - | - |
| 1778277829 | 30.56° C | 51% | 0 hPa | 0 mm | - | - | - |
| 1778277229 | 31.11° C | 50% | 0 hPa | 0 mm | - | - | - |
| 1778276599 | 29.44° C | 53% | 0 hPa | 0 mm | - | - | - |
| 1778275999 | 30° C | 53% | 0 hPa | 0 mm | - | - | - |
| 1778275369 | 30° C | 53% | 0 hPa | 0 mm | - | - | - |
| 1778274739 | 29.44° C | 53% | 0 hPa | 0 mm | - | - | - |
| 1778274139 | 29.44° C | 53% | 0 hPa | 0 mm | - | - | - |
| 1778273509 | 28.33° C | 55% | 0 hPa | 0 mm | - | - | - |
| 1778272909 | 28.33° C | 54% | 0 hPa | 0 mm | - | - | - |
| 1778272279 | 28.33° C | 54% | 0 hPa | 0 mm | - | - | - |
| 1778271649 | 27.22° C | 55% | 0 hPa | 0 mm | - | - | - |
| 1778271049 | 27.78° C | 54% | 0 hPa | 0 mm | - | - | - |
| 1778270449 | 27.78° C | 54% | 0 hPa | 0 mm | - | - | - |
| 1778269849 | 27.22° C | 55% | 0 hPa | 0 mm | - | - | - |
| 1778269219 | 26.67° C | 58% | 0 hPa | 0 mm | - | - | - |
| 1778268619 | 27.22° C | 57% | 0 hPa | 0 mm | - | - | - |
* Rain latest hour (hover to see other rain measurements)
** Current wind speed in m/s (hover to see current wind gust speed)